Time;durP1;ratioP1;P1;durP2;ratioP2;P2;SDS_P1;SDS_P2;PMS_P1;PMS_P2;Temp;Humidity;BMP_temperature;BMP_pressure;BME280_temperature;BME280_humidity;BME280_pressure;Samples;Min_cycle;Max_cycle;Signal;HPM_P1;HPM_P2
2021/01/17 00:00:12;;;;;;;0.22;0.22;;;4.90;99.90;;;;;;6186582;23;20020;-90
2021/01/17 00:02:39;;;;;;;0.68;0.68;;;4.80;99.90;;;;;;6212798;23;20028;-91
2021/01/17 00:05:11;;;;;;;0.43;0.32;;;4.80;99.90;;;;;;6188028;23;20032;-91
2021/01/17 00:07:37;;;;;;;0.15;0.15;;;4.80;99.90;;;;;;6210731;23;20001;-89
2021/01/17 00:10:12;;;;;;;0.43;0.32;;;4.90;99.90;;;;;;6210234;23;20417;-91
2021/01/17 00:12:39;;;;;;;1.15;1.08;;;5.00;99.90;;;;;;6210128;23;20047;-90
2021/01/17 00:15:10;;;;;;;0.30;0.30;;;5.00;99.90;;;;;;6214110;23;20464;-92
2021/01/17 00:17:40;;;;;;;0.10;0.10;;;5.10;99.90;;;;;;6212912;23;20450;-93
2021/01/17 00:20:07;;;;;;;0.30;0.30;;;5.10;99.90;;;;;;6213307;23;20008;-94
2021/01/17 00:22:32;;;;;;;0.22;0.22;;;5.10;99.90;;;;;;6215775;23;20008;-93
2021/01/17 00:24:58;;;;;;;0.10;0.10;;;5.10;99.90;;;;;;6215804;23;20015;-92
2021/01/17 00:27:24;;;;;;;0.43;0.43;;;5.10;99.90;;;;;;6215632;23;20389;-92
2021/01/17 00:29:49;;;;;;;0.10;0.10;;;5.10;99.90;;;;;;6215496;23;20327;-92
2021/01/17 00:32:15;;;;;;;0.35;0.35;;;4.80;99.90;;;;;;6215562;23;20338;-91
2021/01/17 00:34:41;;;;;;;0.17;0.17;;;4.80;99.90;;;;;;6214989;23;20091;-92
2021/01/17 00:37:07;;;;;;;0.15;0.15;;;4.70;99.90;;;;;;6215412;23;20509;-92
2021/01/17 00:39:34;;;;;;;0.10;0.10;;;4.70;99.90;;;;;;6215618;23;20347;-92
2021/01/17 00:53:02;;;;;;;0.10;0.10;;;4.80;99.90;;;;;;6216661;23;20446;-93
2021/01/17 00:55:28;;;;;;;0.20;0.20;;;4.80;99.90;;;;;;6213914;23;20008;-92
2021/01/17 00:57:56;;;;;;;0.10;0.10;;;4.90;99.90;;;;;;6213445;23;20005;-92
2021/01/17 01:00:24;;;;;;;0.10;0.10;;;4.80;99.90;;;;;;6213295;23;20067;-92
2021/01/17 01:02:50;;;;;;;0.10;0.10;;;4.80;99.90;;;;;;6214208;23;20008;-92
2021/01/17 01:05:16;;;;;;;0.10;0.10;;;4.90;99.90;;;;;;6212218;23;20024;-92
2021/01/17 01:07:44;;;;;;;0.03;0.03;;;4.70;99.90;;;;;;6213139;23;20143;-92
2021/01/17 01:10:11;;;;;;;1.17;1.00;;;4.80;99.90;;;;;;6212603;23;20186;-92
2021/01/17 01:12:37;;;;;;;0.00;0.00;;;5.00;99.90;;;;;;6212034;23;20332;-92
2021/01/17 01:15:07;;;;;;;0.10;0.10;;;5.10;99.90;;;;;;6212630;23;20024;-93
2021/01/17 01:17:34;;;;;;;0.43;0.43;;;5.10;99.90;;;;;;6213602;23;20005;-92
2021/01/17 01:19:59;;;;;;;0.38;0.38;;;5.20;99.90;;;;;;6213279;23;20011;-92
2021/01/17 01:22:25;;;;;;;0.10;0.10;;;5.10;99.90;;;;;;6213874;23;20084;-93
2021/01/17 01:24:51;;;;;;;0.10;0.10;;;5.10;99.90;;;;;;6213371;23;20009;-92
2021/01/17 01:27:17;;;;;;;0.13;0.13;;;5.10;99.90;;;;;;6212712;23;20434;-93
2021/01/17 01:29:42;;;;;;;0.10;0.10;;;5.20;99.90;;;;;;6211124;23;20469;-92
2021/01/17 01:32:11;;;;;;;0.10;0.10;;;5.20;99.90;;;;;;6214834;23;20461;-93
2021/01/17 01:34:36;;;;;;;0.20;0.20;;;5.20;99.90;;;;;;6215033;23;20435;-93
2021/01/17 01:37:02;;;;;;;0.10;0.10;;;5.20;99.90;;;;;;6215246;23;20007;-93
2021/01/17 01:39:28;;;;;;;0.30;0.30;;;5.20;99.90;;;;;;6214822;23;20005;-93
2021/01/17 01:41:54;;;;;;;0.10;0.10;;;5.20;99.90;;;;;;6215056;23;20427;-93
2021/01/17 01:44:20;;;;;;;0.10;0.10;;;5.30;99.90;;;;;;6214903;23;20434;-93
2021/01/17 01:46:46;;;;;;;0.10;0.10;;;5.30;99.90;;;;;;6211943;23;20510;-89
2021/01/17 01:49:12;;;;;;;0.20;0.20;;;5.30;99.90;;;;;;6208613;23;20687;-90
2021/01/17 01:51:38;;;;;;;0.10;0.10;;;5.40;99.90;;;;;;6208902;23;20004;-90
2021/01/17 01:54:06;;;;;;;0.32;0.32;;;5.30;99.90;;;;;;6208988;23;20240;-91
2021/01/17 01:56:32;;;;;;;0.10;0.10;;;5.30;99.90;;;;;;6211393;23;20009;-91
2021/01/17 01:59:01;;;;;;;0.10;0.10;;;5.40;99.90;;;;;;6207930;23;20455;-91
2021/01/17 02:01:27;;;;;;;0.10;0.10;;;5.40;99.90;;;;;;6210172;23;20446;-92
2021/01/17 02:03:52;;;;;;;0.45;0.45;;;5.40;99.90;;;;;;6209862;23;20015;-91
2021/01/17 02:06:23;;;;;;;0.10;0.10;;;5.40;99.90;;;;;;6209377;23;20394;-92
2021/01/17 02:09:19;;;;;;;0.03;0.03;;;5.50;99.90;;;;;;6212422;23;20335;-92
2021/01/17 02:12:03;;;;;;;;;;;5.40;99.90;;;;;;6210033;23;20004;-91
2021/01/17 02:14:38;;;;;;;0.10;0.10;;;5.40;99.90;;;;;;6213292;23;19899;-93
2021/01/17 02:17:21;;;;;;;0.10;0.10;;;5.40;99.90;;;;;;6214091;23;20027;-93
2021/01/17 02:20:02;;;;;;;0.10;0.10;;;5.40;99.90;;;;;;6213679;23;20004;-93
2021/01/17 02:22:33;;;;;;;0.32;0.32;;;5.40;99.90;;;;;;6213534;23;20442;-92
2021/01/17 02:25:08;;;;;;;0.10;0.10;;;5.40;99.90;;;;;;6212190;23;20443;-92
2021/01/17 02:27:35;;;;;;;0.22;0.22;;;5.40;99.90;;;;;;6212523;23;20011;-93
2021/01/17 02:30:04;;;;;;;0.30;0.30;;;5.20;99.90;;;;;;6213586;23;20108;-93
2021/01/17 02:32:32;;;;;;;0.10;0.10;;;5.40;99.90;;;;;;6213616;23;20607;-93
2021/01/17 02:34:59;;;;;;;0.08;0.08;;;5.30;99.90;;;;;;6214237;23;20327;-93
2021/01/17 02:37:50;;;;;;;0.38;0.28;;;5.20;99.90;;;;;;6214421;23;20036;-93
2021/01/17 02:40:40;;;;;;;0.40;0.40;;;5.30;99.90;;;;;;6195038;23;20059;-93
2021/01/17 02:43:07;;;;;;;0.10;0.10;;;5.20;99.90;;;;;;6214484;23;20043;-93
2021/01/17 02:45:34;;;;;;;0.60;0.25;;;5.30;99.90;;;;;;6214151;23;20442;-93
2021/01/17 02:48:00;;;;;;;0.30;0.30;;;5.30;99.90;;;;;;6213755;23;20582;-93
2021/01/17 02:50:25;;;;;;;0.10;0.10;;;5.40;99.90;;;;;;6213986;23;20024;-93
2021/01/17 02:53:14;;;;;;;0.00;0.00;;;5.40;99.90;;;;;;6214344;23;20075;-93
2021/01/17 02:55:41;;;;;;;0.30;0.30;;;5.30;99.90;;;;;;6215911;23;20015;-94
2021/01/17 02:58:08;;;;;;;0.43;0.33;;;5.40;99.90;;;;;;6215542;23;20346;-94
2021/01/17 03:00:37;;;;;;;0.03;0.03;;;5.40;99.90;;;;;;6216853;23;20083;-93
2021/01/17 03:03:06;;;;;;;0.10;0.10;;;5.50;99.90;;;;;;6215596;23;20008;-93
2021/01/17 03:05:33;;;;;;;0.10;0.10;;;5.50;99.90;;;;;;6216511;23;20062;-94
2021/01/17 03:08:03;;;;;;;0.10;0.10;;;5.40;99.90;;;;;;6216321;23;20004;-94
2021/01/17 03:10:30;;;;;;;0.10;0.10;;;5.40;99.90;;;;;;6216328;23;20005;-94
2021/01/17 03:12:59;;;;;;;0.82;0.82;;;5.50;99.90;;;;;;6213796;23;20443;-92
2021/01/17 03:15:26;;;;;;;0.10;0.10;;;5.60;99.90;;;;;;6214029;23;20019;-92
2021/01/17 03:17:51;;;;;;;0.10;0.10;;;5.70;99.90;;;;;;6212939;23;20012;-92
2021/01/17 03:20:17;;;;;;;0.20;0.20;;;5.70;99.90;;;;;;6214023;23;20005;-92
2021/01/17 03:22:43;;;;;;;0.10;0.10;;;5.70;99.90;;;;;;6212861;23;20036;-92
2021/01/17 03:25:09;;;;;;;0.17;0.17;;;5.60;99.90;;;;;;6214344;23;20067;-92
2021/01/17 03:27:35;;;;;;;0.10;0.10;;;5.60;99.90;;;;;;6210837;23;20713;-91
2021/01/17 03:30:01;;;;;;;0.10;0.10;;;5.70;99.90;;;;;;6212967;23;20087;-92
2021/01/17 03:32:27;;;;;;;0.00;0.00;;;5.80;99.90;;;;;;6211962;23;20001;-91
2021/01/17 03:34:52;;;;;;;0.10;0.10;;;5.70;99.90;;;;;;6210787;23;20047;-91
2021/01/17 03:37:19;;;;;;;0.10;0.10;;;5.70;99.90;;;;;;6211090;23;20012;-91
2021/01/17 03:39:45;;;;;;;0.10;0.10;;;5.80;99.90;;;;;;6209761;23;20005;-91
2021/01/17 03:42:11;;;;;;;0.10;0.10;;;5.80;99.90;;;;;;6213158;23;20008;-91
2021/01/17 03:44:38;;;;;;;0.10;0.10;;;5.80;99.90;;;;;;6211590;23;20586;-91
2021/01/17 03:47:05;;;;;;;0.10;0.10;;;5.90;99.90;;;;;;6214317;23;20007;-91
2021/01/17 03:49:30;;;;;;;0.10;0.10;;;5.90;99.90;;;;;;6213511;23;20332;-91
2021/01/17 03:51:56;;;;;;;0.10;0.10;;;5.90;99.90;;;;;;6212615;23;19997;-90
2021/01/17 03:54:23;;;;;;;0.00;0.00;;;5.90;99.90;;;;;;6212364;23;20008;-91
2021/01/17 03:56:49;;;;;;;0.10;0.10;;;6.00;99.90;;;;;;6211847;23;20012;-92
2021/01/17 03:59:18;;;;;;;0.10;0.10;;;6.00;99.90;;;;;;6214377;23;20686;-92
2021/01/17 04:01:45;;;;;;;0.10;0.10;;;6.10;99.90;;;;;;6213231;23;20016;-92
2021/01/17 04:04:10;;;;;;;0.35;0.35;;;6.00;99.90;;;;;;6214877;23;20028;-93
2021/01/17 04:06:37;;;;;;;0.43;0.43;;;6.00;99.90;;;;;;6212341;23;20019;-91
2021/01/17 04:09:04;;;;;;;0.10;0.10;;;6.10;99.90;;;;;;6212946;23;20009;-92
2021/01/17 04:11:29;;;;;;;;;;;6.20;99.90;;;;;;6214487;23;20634;-92
2021/01/17 04:13:55;;;;;;;0.10;0.10;;;6.00;99.90;;;;;;6213570;23;19994;-92
2021/01/17 04:16:21;;;;;;;0.32;0.32;;;5.50;99.90;;;;;;6214620;23;20009;-92
2021/01/17 04:18:47;;;;;;;0.10;0.10;;;5.30;99.90;;;;;;6216205;23;20012;-93
2021/01/17 04:21:13;;;;;;;0.00;0.00;;;5.20;99.90;;;;;;6216590;23;20090;-94
2021/01/17 04:23:38;;;;;;;0.10;0.10;;;5.30;99.90;;;;;;6216357;23;20130;-94
2021/01/17 04:26:04;;;;;;;0.10;0.10;;;5.40;99.90;;;;;;6215740;23;20031;-93
2021/01/17 04:28:30;;;;;;;0.08;0.08;;;5.50;99.90;;;;;;6215228;23;20016;-93
2021/01/17 04:30:56;;;;;;;0.22;0.22;;;5.50;99.90;;;;;;6215170;23;20013;-93
2021/01/17 04:33:22;;;;;;;0.10;0.10;;;5.60;99.90;;;;;;6215241;23;20008;-92
2021/01/17 04:35:48;;;;;;;0.10;0.10;;;5.70;99.90;;;;;;6214453;23;20067;-93
2021/01/17 04:38:14;;;;;;;0.00;0.00;;;5.80;99.90;;;;;;6215002;23;20008;-92
2021/01/17 04:40:40;;;;;;;0.10;0.10;;;5.90;99.90;;;;;;6216716;23;20472;-93
2021/01/17 04:43:18;;;;;;;0.80;0.52;;;6.00;99.90;;;;;;6213661;23;20100;-92
2021/01/17 04:45:46;;;;;;;0.10;0.10;;;6.10;99.90;;;;;;6210476;23;20015;-91
2021/01/17 04:48:14;;;;;;;0.10;0.10;;;6.10;99.90;;;;;;6211425;23;20445;-91
2021/01/17 04:50:41;;;;;;;0.10;0.10;;;6.10;99.90;;;;;;6209920;23;20005;-91
2021/01/17 04:53:07;;;;;;;0.00;0.00;;;6.00;99.90;;;;;;6210127;23;20436;-92
2021/01/17 04:55:38;;;;;;;0.10;0.10;;;6.10;99.90;;;;;;6212010;23;20076;-92
2021/01/17 04:58:18;;;;;;;1.92;1.05;;;6.10;99.90;;;;;;6210405;23;20005;-92
2021/01/17 05:00:57;;;;;;;0.20;0.20;;;6.10;99.90;;;;;;6212105;23;20011;-90
2021/01/17 05:03:54;;;;;;;0.10;0.10;;;6.00;99.90;;;;;;6212922;23;20431;-91
2021/01/17 05:06:26;;;;;;;;;;;6.00;99.90;;;;;;6215346;23;20036;-92
2021/01/17 05:09:03;;;;;;;0.25;0.25;;;6.00;99.90;;;;;;6202659;23;19910;-91
2021/01/17 05:11:40;;;;;;;0.00;0.00;;;6.00;99.90;;;;;;6186207;23;20005;-91
2021/01/17 05:14:12;;;;;;;0.00;0.00;;;6.00;99.90;;;;;;6211915;23;20431;-91
2021/01/17 05:16:40;;;;;;;0.08;0.08;;;6.00;99.90;;;;;;6211245;23;20011;-92
2021/01/17 05:19:13;;;;;;;0.10;0.10;;;6.00;99.90;;;;;;6185968;23;20327;-92
2021/01/17 05:21:46;;;;;;;0.10;0.10;;;6.00;99.90;;;;;;6185558;23;20009;-91
2021/01/17 05:24:13;;;;;;;0.10;0.10;;;6.00;99.90;;;;;;6185978;23;20013;-92
2021/01/17 05:26:51;;;;;;;0.10;0.10;;;6.00;99.90;;;;;;6186437;23;20004;-91
2021/01/17 05:29:21;;;;;;;0.10;0.10;;;6.00;99.90;;;;;;6212986;23;20076;-91
2021/01/17 05:31:50;;;;;;;0.10;0.10;;;6.00;99.90;;;;;;6188787;23;20345;-92
2021/01/17 05:34:19;;;;;;;0.00;0.00;;;6.00;99.90;;;;;;6190021;23;20461;-93
2021/01/17 05:37:04;;;;;;;0.10;0.10;;;6.00;99.90;;;;;;6189775;23;20004;-93
2021/01/17 05:39:31;;;;;;;0.10;0.10;;;6.00;99.90;;;;;;6216599;23;20343;-93
2021/01/17 05:42:09;;;;;;;0.10;0.10;;;6.00;99.90;;;;;;6190041;23;20005;-93
2021/01/17 05:44:36;;;;;;;0.10;0.10;;;6.00;99.90;;;;;;6189623;23;20091;-93
2021/01/17 05:47:04;;;;;;;0.10;0.10;;;6.10;99.90;;;;;;6216131;23;20000;-94
2021/01/17 05:49:31;;;;;;;0.10;0.10;;;6.10;99.90;;;;;;6190032;23;20012;-93
2021/01/17 05:52:14;;;;;;;0.10;0.10;;;6.10;99.90;;;;;;6190238;23;20348;-93
2021/01/17 05:54:41;;;;;;;0.00;0.00;;;6.10;99.90;;;;;;6189154;23;20015;-93
2021/01/17 05:57:22;;;;;;;0.00;0.00;;;6.10;99.90;;;;;;6189112;23;20036;-92
2021/01/17 05:59:48;;;;;;;0.10;0.10;;;6.20;99.90;;;;;;6214090;23;20470;-92
2021/01/17 06:02:16;;;;;;;0.10;0.10;;;6.20;99.90;;;;;;6187232;23;20103;-92
2021/01/17 06:04:47;;;;;;;0.00;0.00;;;6.30;99.90;;;;;;6186054;23;20036;-91
2021/01/17 06:07:15;;;;;;;0.10;0.10;;;6.30;99.90;;;;;;6187208;23;20009;-93
2021/01/17 06:09:43;;;;;;;0.55;0.50;;;6.30;99.90;;;;;;6188672;23;20080;-92
2021/01/17 06:12:10;;;;;;;0.10;0.10;;;6.20;99.90;;;;;;6214161;23;20000;-93
2021/01/17 06:14:36;;;;;;;0.00;0.00;;;6.20;99.90;;;;;;6186359;23;20023;-92
2021/01/17 06:17:04;;;;;;;0.15;0.15;;;6.20;99.90;;;;;;6187081;23;20084;-93
2021/01/17 06:19:38;;;;;;;0.10;0.10;;;6.20;99.90;;;;;;6189116;23;20015;-92
2021/01/17 06:22:08;;;;;;;0.08;0.08;;;6.20;99.90;;;;;;6187010;23;20004;-92
2021/01/17 06:24:43;;;;;;;0.10;0.10;;;6.20;99.90;;;;;;6186550;23;20018;-91
2021/01/17 06:27:09;;;;;;;0.10;0.10;;;6.20;99.90;;;;;;6210935;23;20092;-91
2021/01/17 06:29:41;;;;;;;0.00;0.00;;;6.20;99.90;;;;;;6183472;23;20435;-90
2021/01/17 06:32:13;;;;;;;0.10;0.10;;;6.10;99.90;;;;;;6213321;23;20016;-91
2021/01/17 06:34:59;;;;;;;0.10;0.10;;;6.10;99.90;;;;;;6184781;23;20008;-92
2021/01/17 06:37:26;;;;;;;0.08;0.08;;;6.10;99.90;;;;;;6184851;23;20070;-91
2021/01/17 06:39:57;;;;;;;0.10;0.10;;;6.10;99.90;;;;;;6210689;23;20015;-90
2021/01/17 06:42:25;;;;;;;0.10;0.10;;;6.00;99.90;;;;;;6215371;23;20001;-94
2021/01/17 06:44:52;;;;;;;0.10;0.10;;;6.10;99.90;;;;;;6187473;23;20013;-93
2021/01/17 06:47:19;;;;;;;;;;;6.10;99.90;;;;;;6187144;23;20009;-95
2021/01/17 06:49:46;;;;;;;0.32;0.32;;;6.10;99.90;;;;;;6186090;23;19900;-93
2021/01/17 06:52:14;;;;;;;0.08;0.08;;;6.10;99.90;;;;;;6186349;23;20082;-91
2021/01/17 06:54:52;;;;;;;0.00;0.00;;;6.20;99.90;;;;;;6187496;23;20048;-93
2021/01/17 06:57:19;;;;;;;0.00;0.00;;;6.20;99.90;;;;;;6188684;23;20336;-95
2021/01/17 06:59:52;;;;;;;0.10;0.10;;;6.10;99.90;;;;;;6187731;23;20017;-92
2021/01/17 07:02:26;;;;;;;0.10;0.10;;;6.10;99.90;;;;;;6185976;23;20004;-91
2021/01/17 07:05:19;;;;;;;0.10;0.10;;;6.00;99.90;;;;;;6184647;23;20005;-91
2021/01/17 07:07:51;;;;;;;0.30;0.30;;;5.90;99.90;;;;;;6188128;23;20007;-96
2021/01/17 07:10:22;;;;;;;0.10;0.10;;;5.90;99.90;;;;;;6214088;23;20131;-94
2021/01/17 07:13:01;;;;;;;0.00;0.00;;;5.80;99.90;;;;;;6187063;23;20000;-95
2021/01/17 07:15:35;;;;;;;0.00;0.00;;;5.50;99.90;;;;;;6184704;23;20084;-92
2021/01/17 07:18:11;;;;;;;0.10;0.10;;;5.50;99.90;;;;;;6188949;23;20018;-95
2021/01/17 07:20:49;;;;;;;0.10;0.10;;;5.50;99.90;;;;;;6190792;23;20004;-95
2021/01/17 07:23:16;;;;;;;0.10;0.10;;;5.60;99.90;;;;;;6191404;23;20004;-94
2021/01/17 07:25:47;;;;;;;0.10;0.10;;;5.60;99.90;;;;;;6187243;23;20016;-94
2021/01/17 07:28:13;;;;;;;0.38;0.38;;;5.50;99.90;;;;;;6193868;23;20001;-94
2021/01/17 07:31:10;;;;;;;0.63;0.63;;;5.40;99.90;;;;;;6190367;23;20008;-94
2021/01/17 07:33:38;;;;;;;1.08;0.90;;;5.40;99.90;;;;;;6186289;23;20005;-96
2021/01/17 07:36:10;;;;;;;1.15;1.05;;;5.40;99.90;;;;;;6191984;23;20008;-96
2021/01/17 07:38:38;;;;;;;0.98;0.98;;;5.40;99.90;;;;;;6190114;23;20036;-95
2021/01/17 07:41:10;;;;;;;0.20;0.20;;;5.40;99.90;;;;;;6190550;23;20001;-96
2021/01/17 07:43:42;;;;;;;0.10;0.10;;;5.30;99.90;;;;;;6193963;23;20004;-96
2021/01/17 07:46:14;;;;;;;0.00;0.00;;;5.00;99.90;;;;;;6194650;23;20009;-94
2021/01/17 07:48:47;;;;;;;0.10;0.10;;;5.00;99.90;;;;;;6191410;23;20088;-96
2021/01/17 07:51:17;;;;;;;0.10;0.10;;;4.90;99.90;;;;;;6192875;23;20001;-96
2021/01/17 07:53:59;;;;;;;0.10;0.10;;;4.90;99.90;;;;;;6188823;23;20001;-93
2021/01/17 07:56:31;;;;;;;1.92;1.17;;;5.10;99.90;;;;;;6190280;23;20027;-94
2021/01/17 07:59:08;;;;;;;0.35;0.35;;;5.70;99.90;;;;;;6192037;23;20001;-95
2021/01/17 08:01:34;;;;;;;0.17;0.17;;;7.70;99.90;;;;;;6190232;23;20004;-93
2021/01/17 08:04:13;;;;;;;0.10;0.10;;;8.60;99.90;;;;;;6191487;23;20008;-95
2021/01/17 08:06:42;;;;;;;0.17;0.17;;;10.30;99.90;;;;;;6211808;23;20022;-95
2021/01/17 08:09:19;;;;;;;0.08;0.08;;;10.70;99.90;;;;;;6215643;23;20005;-93
2021/01/17 08:11:57;;;;;;;0.00;0.00;;;8.40;99.90;;;;;;6215277;23;20007;-95
2021/01/17 08:14:29;;;;;;;0.20;0.20;;;8.50;99.90;;;;;;6217149;23;20091;-95
2021/01/17 08:17:09;;;;;;;0.10;0.10;;;8.90;99.90;;;;;;6214026;23;20008;-94
2021/01/17 08:20:03;;;;;;;0.10;0.10;;;8.50;99.90;;;;;;6217444;23;20005;-96
2021/01/17 08:22:29;;;;;;;0.10;0.10;;;10.70;99.90;;;;;;6215853;23;20344;-93
2021/01/17 08:24:56;;;;;;;0.10;0.10;;;10.40;99.90;;;;;;6218328;23;20032;-93
2021/01/17 08:27:33;;;;;;;0.10;0.10;;;9.80;99.90;;;;;;6213829;23;20069;-92
2021/01/17 08:30:02;;;;;;;0.10;0.10;;;12.50;99.90;;;;;;6224634;23;20001;-92
2021/01/17 08:32:29;;;;;;;0.10;0.10;;;11.90;99.90;;;;;;6218000;23;20112;-96
2021/01/17 08:34:56;;;;;;;0.10;0.10;;;12.60;99.90;;;;;;6222339;23;20009;-96
2021/01/17 08:37:24;;;;;;;0.43;0.40;;;11.40;99.90;;;;;;6223257;23;20016;-96
2021/01/17 08:39:55;;;;;;;0.75;0.75;;;13.40;99.90;;;;;;6228411;23;20036;-96
2021/01/17 08:42:41;;;;;;;1.52;1.42;;;14.20;99.90;;;;;;6201068;23;20017;-95
2021/01/17 08:45:42;;;;;;;0.70;0.70;;;15.40;99.90;;;;;;6221859;23;20004;-96
2021/01/17 08:48:17;;;;;;;0.20;0.20;;;12.00;99.90;;;;;;6220025;23;20000;-96
2021/01/17 08:50:55;;;;;;;0.20;0.20;;;13.70;99.90;;;;;;6215752;23;20005;-95
2021/01/17 08:53:22;;;;;;;0.10;0.10;;;12.70;99.90;;;;;;6220539;23;20000;-96
2021/01/17 08:56:10;;;;;;;0.70;0.60;;;14.70;99.90;;;;;;6225690;23;20005;-96
2021/01/17 08:58:41;;;;;;;0.47;0.45;;;13.00;99.90;;;;;;6232563;23;20438;-95
2021/01/17 09:01:16;;;;;;;0.17;0.17;;;13.30;99.90;;;;;;6232011;23;20080;-95
2021/01/17 09:03:46;;;;;;;0.25;0.25;;;11.70;99.90;;;;;;6220428;23;20030;-95
2021/01/17 09:06:12;;;;;;;0.10;0.10;;;11.80;99.90;;;;;;6216305;23;20013;-95
2021/01/17 09:09:00;;;;;;;0.10;0.10;;;13.20;99.90;;;;;;6216385;23;20005;-93
2021/01/17 09:11:31;;;;;;;1.40;1.30;;;13.50;99.90;;;;;;6216127;23;20055;-96
2021/01/17 09:14:27;;;;;;;0.20;0.20;;;14.50;99.90;;;;;;6221323;23;20055;-96
2021/01/17 09:20:21;;;;;;;0.10;0.10;;;13.30;99.90;;;;;;6213181;23;20015;-95
2021/01/17 09:22:50;;;;;;;0.30;0.30;;;13.30;99.90;;;;;;6217931;23;20320;-96
2021/01/17 09:25:17;;;;;;;2.42;0.47;;;12.90;99.90;;;;;;6190994;23;20023;-93
2021/01/17 09:27:42;;;;;;;;;;;11.60;99.90;;;;;;6212089;23;20008;-93
2021/01/17 09:30:12;;;;;;;0.10;0.10;;;12.80;99.90;;;;;;6213728;23;19904;-93
2021/01/17 09:32:40;;;;;;;0.15;0.15;;;13.10;99.90;;;;;;6214535;23;20216;-92
2021/01/17 09:35:09;;;;;;;0.00;0.00;;;11.30;99.90;;;;;;6195641;23;20099;-96
2021/01/17 09:38:06;;;;;;;0.32;0.32;;;12.60;99.90;;;;;;6223518;23;20005;-95
2021/01/17 09:40:39;;;;;;;0.10;0.10;;;14.00;99.90;;;;;;6185931;23;20016;-96
2021/01/17 09:43:07;;;;;;;0.10;0.10;;;14.40;99.90;;;;;;6228097;23;20032;-96
2021/01/17 09:45:34;;;;;;;1.95;1.35;;;16.90;99.90;;;;;;6225024;23;20005;-94
2021/01/17 09:48:05;;;;;;;0.20;0.20;;;16.20;99.90;;;;;;6226566;23;20000;-96
2021/01/17 09:50:38;;;;;;;0.20;0.20;;;15.30;99.90;;;;;;6228161;23;20032;-92
2021/01/17 09:53:09;;;;;;;0.30;0.30;;;14.70;99.90;;;;;;6207266;23;20000;-94
2021/01/17 09:55:38;;;;;;;0.17;0.17;;;13.60;99.90;;;;;;6215725;23;20000;-92
2021/01/17 09:58:09;;;;;;;0.13;0.13;;;11.80;99.90;;;;;;6220704;23;20028;-95
2021/01/17 10:00:36;;;;;;;0.30;0.30;;;10.00;99.90;;;;;;6223521;23;20342;-95
2021/01/17 10:03:09;;;;;;;;;;;13.90;99.90;;;;;;6224826;23;20042;-95
2021/01/17 10:05:38;;;;;;;0.08;0.08;;;14.30;99.90;;;;;;6224715;23;19918;-96
2021/01/17 10:08:13;;;;;;;0.40;0.38;;;14.30;99.90;;;;;;6223936;23;20005;-95
2021/01/17 10:10:53;;;;;;;0.20;0.20;;;14.90;99.90;;;;;;6221714;23;20028;-94
2021/01/17 10:13:21;;;;;;;0.20;0.20;;;15.90;1.00;;;;;;6220790;23;20008;-95
2021/01/17 10:15:57;;;;;;;0.32;0.32;;;15.20;99.90;;;;;;6221500;23;20058;-95
2021/01/17 10:18:24;;;;;;;0.13;0.13;;;11.60;1.00;;;;;;6217879;23;20056;-95
2021/01/17 10:20:56;;;;;;;0.10;0.10;;;10.30;1.00;;;;;;6219390;23;20009;-93
2021/01/17 10:23:32;;;;;;;0.17;0.17;;;13.70;1.00;;;;;;6223062;23;20005;-95
2021/01/17 10:25:59;;;;;;;0.45;0.45;;;12.30;99.90;;;;;;6225073;23;20011;-95
2021/01/17 10:28:26;;;;;;;;;;;11.40;1.00;;;;;;6226216;23;20000;-96
2021/01/17 10:30:59;;;;;;;0.75;0.75;;;11.70;99.90;;;;;;6224510;23;20234;-95
2021/01/17 10:33:29;;;;;;;5.70;1.75;;;15.30;99.90;;;;;;6222100;23;20000;-93
2021/01/17 10:35:55;;;;;;;0.15;0.15;;;13.70;99.90;;;;;;6228603;23;20039;-96
2021/01/17 10:38:20;;;;;;;0.10;0.10;;;10.80;99.90;;;;;;6220896;23;20423;-94
2021/01/17 10:40:47;;;;;;;0.10;0.10;;;9.10;99.90;;;;;;6224185;23;20011;-96
2021/01/17 10:43:32;;;;;;;;;;;10.10;99.90;;;;;;6225477;23;20064;-96
2021/01/17 10:46:11;;;;;;;0.10;0.10;;;11.30;99.90;;;;;;6222123;23;19904;-93
2021/01/17 10:49:13;;;;;;;0.10;0.10;;;13.80;99.90;;;;;;6216890;23;20072;-93
2021/01/17 10:51:42;;;;;;;0.10;0.10;;;14.00;99.90;;;;;;6220941;23;20000;-96
2021/01/17 10:54:14;;;;;;;0.30;0.30;;;12.80;99.90;;;;;;6219852;23;20068;-95
2021/01/17 10:56:41;;;;;;;0.20;0.20;;;11.00;99.90;;;;;;6222811;23;20009;-94
2021/01/17 10:59:31;;;;;;;0.10;0.10;;;9.20;99.90;;;;;;6193690;23;19990;-95
2021/01/17 11:01:57;;;;;;;0.10;0.10;;;8.40;99.90;;;;;;6153955;23;20005;-93
2021/01/17 11:04:23;;;;;;;0.15;0.15;;;9.20;99.90;;;;;;6161307;23;20013;-95
2021/01/17 11:06:49;;;;;;;0.52;0.52;;;8.90;99.90;;;;;;6165051;23;20001;-94
2021/01/17 11:09:17;;;;;;;0.10;0.10;;;8.50;99.90;;;;;;6159614;23;20466;-94
2021/01/17 11:11:48;;;;;;;0.47;0.47;;;8.50;99.90;;;;;;6156862;23;20007;-92
2021/01/17 11:14:23;;;;;;;1.27;0.77;;;12.60;99.90;;;;;;6157907;23;20012;-95
2021/01/17 11:16:51;;;;;;;0.75;0.75;;;11.10;99.90;;;;;;6160161;23;20005;-95
2021/01/17 11:19:18;;;;;;;0.15;0.15;;;9.10;99.90;;;;;;6163606;23;20005;-96
2021/01/17 11:22:15;;;;;;;0.30;0.30;;;8.70;99.90;;;;;;6166000;23;20009;-96
2021/01/17 11:24:41;;;;;;;0.90;0.85;;;7.80;99.90;;;;;;6164422;23;20060;-95
2021/01/17 11:27:15;;;;;;;0.17;0.17;;;7.40;99.90;;;;;;6163968;23;20001;-95
2021/01/17 11:29:42;;;;;;;0.17;0.17;;;7.50;99.90;;;;;;6162369;23;20338;-92
2021/01/17 11:32:09;;;;;;;;;;;7.30;99.90;;;;;;6186431;23;20076;-93
2021/01/17 11:34:40;;;;;;;1.17;0.98;;;7.30;1.00;;;;;;6159635;23;19975;-94
2021/01/17 11:37:08;;;;;;;3.40;1.05;;;7.20;99.90;;;;;;6160657;23;20012;-93
2021/01/17 11:39:34;;;;;;;0.10;0.10;;;7.20;99.90;;;;;;6160624;23;20015;-93
2021/01/17 11:42:00;;;;;;;0.68;0.68;;;7.40;99.90;;;;;;6160995;23;20005;-95
2021/01/17 11:44:32;;;;;;;0.10;0.10;;;7.10;99.90;;;;;;6186439;23;20012;-95
2021/01/17 11:47:01;;;;;;;5.15;1.30;;;8.20;99.90;;;;;;6161289;23;20008;-95
2021/01/17 11:49:29;;;;;;;0.20;0.20;;;11.50;99.90;;;;;;6161296;23;20449;-94
2021/01/17 11:51:56;;;;;;;0.10;0.10;;;12.40;99.90;;;;;;6161582;23;20037;-94
2021/01/17 11:54:31;;;;;;;0.65;0.65;;;12.80;99.90;;;;;;6187223;23;20013;-95
2021/01/17 11:57:09;;;;;;;0.10;0.10;;;12.90;99.90;;;;;;6160261;23;20009;-94
2021/01/17 11:59:36;;;;;;;0.10;0.10;;;12.00;99.90;;;;;;6163332;23;20020;-93
2021/01/17 12:02:21;;;;;;;0.10;0.10;;;8.60;99.90;;;;;;6185301;23;20036;-93
2021/01/17 12:04:57;;;;;;;0.90;0.90;;;8.30;99.90;;;;;;6176509;23;20068;-91
2021/01/17 12:07:24;;;;;;;0.10;0.10;;;8.40;99.90;;;;;;6181407;23;20001;-93
2021/01/17 12:10:08;;;;;;;0.77;0.47;;;7.60;99.90;;;;;;6183638;23;20032;-94
2021/01/17 12:12:39;;;;;;;0.17;0.17;;;8.00;99.90;;;;;;6186142;23;20446;-96
2021/01/17 12:15:07;;;;;;;1.00;0.50;;;8.30;99.90;;;;;;6187091;23;20440;-95
2021/01/17 12:17:32;;;;;;;0.25;0.25;;;8.30;99.90;;;;;;6187874;23;20443;-94
2021/01/17 12:19:58;;;;;;;0.80;0.65;;;8.60;99.90;;;;;;6188569;23;20024;-96
2021/01/17 12:22:27;;;;;;;0.43;0.43;;;8.80;99.90;;;;;;6191119;23;20008;-96
2021/01/17 12:24:57;;;;;;;0.20;0.20;;;8.30;99.90;;;;;;6164756;23;20009;-96
2021/01/17 12:27:23;;;;;;;0.40;0.40;;;8.60;99.90;;;;;;6195067;23;20459;-96
2021/01/17 12:29:54;;;;;;;0.10;0.10;;;8.80;99.90;;;;;;6206954;23;20005;-96
2021/01/17 12:32:25;;;;;;;0.60;0.52;;;8.10;99.90;;;;;;6223718;23;20051;-96
2021/01/17 12:34:50;;;;;;;2.47;2.28;;;7.70;99.90;;;;;;6201703;23;20482;-96
2021/01/17 12:37:16;;;;;;;0.68;0.68;;;7.50;99.90;;;;;;6200142;23;20324;-96
2021/01/17 12:39:42;;;;;;;0.30;0.30;;;7.70;99.90;;;;;;6194440;23;20032;-95
2021/01/17 12:42:10;;;;;;;0.20;0.20;;;7.60;99.90;;;;;;6199301;23;20000;-96
2021/01/17 12:44:36;;;;;;;0.68;0.68;;;7.40;99.90;;;;;;6200785;23;20092;-95
2021/01/17 12:47:05;;;;;;;0.30;0.30;;;7.60;99.90;;;;;;6192650;23;20005;-95
2021/01/17 12:49:32;;;;;;;0.13;0.13;;;8.30;99.90;;;;;;6194682;23;20328;-95
2021/01/17 12:51:58;;;;;;;0.28;0.28;;;8.80;99.90;;;;;;6189327;23;20011;-92
2021/01/17 12:54:23;;;;;;;0.88;0.88;;;8.50;99.90;;;;;;6187177;23;20039;-95
2021/01/17 12:56:49;;;;;;;0.45;0.35;;;8.10;99.90;;;;;;6190104;23;20011;-95
2021/01/17 12:59:15;;;;;;;0.35;0.35;;;8.10;99.90;;;;;;6189499;23;20009;-94
2021/01/17 13:01:40;;;;;;;0.10;0.10;;;8.00;99.90;;;;;;6189581;23;20143;-96
2021/01/17 13:04:06;;;;;;;0.28;0.28;;;8.10;99.90;;;;;;6193569;23;20055;-94
2021/01/17 13:06:32;;;;;;;0.10;0.10;;;7.90;99.90;;;;;;6191055;23;20009;-95
2021/01/17 13:08:58;;;;;;;0.10;0.10;;;8.00;99.90;;;;;;6189734;23;20032;-95
2021/01/17 13:11:23;;;;;;;0.10;0.10;;;8.40;99.90;;;;;;6188344;23;20000;-93
2021/01/17 13:13:49;;;;;;;0.10;0.10;;;7.90;99.90;;;;;;6188762;23;20011;-95
2021/01/17 13:16:27;;;;;;;0.63;0.63;;;7.60;99.90;;;;;;6191151;23;20008;-94
2021/01/17 13:18:54;;;;;;;0.68;0.68;;;7.40;99.90;;;;;;6185890;23;20456;-92
2021/01/17 13:21:20;;;;;;;0.20;0.20;;;7.70;99.90;;;;;;6186205;23;20000;-93
2021/01/17 13:23:46;;;;;;;0.43;0.43;;;8.00;99.90;;;;;;6186709;23;20096;-89
2021/01/17 13:26:16;;;;;;;0.10;0.10;;;8.40;99.90;;;;;;6184404;23;20009;-90
2021/01/17 13:28:42;;;;;;;0.10;0.10;;;8.30;99.90;;;;;;6183880;23;20004;-92